sensor_id;sensor_type;location;lat;lon;timestamp;P1;durP1;ratioP1;P2;durP2;ratioP2
54845;SDS011;53889;50.084;8.646;2024-03-02T08:09:54;21.55;;;14.10;;
54845;SDS011;53889;50.084;8.646;2024-03-02T08:12:21;21.35;;;13.52;;
54845;SDS011;53889;50.084;8.646;2024-03-02T08:14:48;23.10;;;13.38;;
54845;SDS011;53889;50.084;8.646;2024-03-02T08:17:15;18.80;;;13.07;;
54845;SDS011;53889;50.084;8.646;2024-03-02T08:19:42;19.98;;;12.68;;
54845;SDS011;53889;50.084;8.646;2024-03-02T08:22:10;16.75;;;12.05;;
54845;SDS011;53889;50.084;8.646;2024-03-02T08:24:38;19.75;;;13.30;;
54845;SDS011;53889;50.084;8.646;2024-03-02T08:27:05;17.38;;;12.65;;
54845;SDS011;53889;50.084;8.646;2024-03-02T08:29:32;18.60;;;12.32;;
54845;SDS011;53889;50.084;8.646;2024-03-02T08:31:59;17.50;;;12.05;;
54845;SDS011;53889;50.084;8.646;2024-03-02T08:34:26;16.92;;;12.07;;
54845;SDS011;53889;50.084;8.646;2024-03-02T08:36:55;21.75;;;12.60;;
54845;SDS011;53889;50.084;8.646;2024-03-02T08:39:22;18.38;;;12.57;;
54845;SDS011;53889;50.084;8.646;2024-03-02T08:41:50;17.02;;;12.27;;
54845;SDS011;53889;50.084;8.646;2024-03-02T08:44:18;16.90;;;11.90;;
54845;SDS011;53889;50.084;8.646;2024-03-02T08:46:45;19.90;;;13.52;;
54845;SDS011;53889;50.084;8.646;2024-03-02T08:49:12;17.48;;;11.77;;
54845;SDS011;53889;50.084;8.646;2024-03-02T08:51:39;17.13;;;11.75;;
54845;SDS011;53889;50.084;8.646;2024-03-02T08:54:06;17.42;;;11.45;;
54845;SDS011;53889;50.084;8.646;2024-03-02T08:56:32;15.95;;;10.90;;
54845;SDS011;53889;50.084;8.646;2024-03-02T08:59:01;16.73;;;11.65;;
54845;SDS011;53889;50.084;8.646;2024-03-02T09:01:28;16.58;;;10.50;;
54845;SDS011;53889;50.084;8.646;2024-03-02T09:03:55;17.52;;;11.77;;
54845;SDS011;53889;50.084;8.646;2024-03-02T09:06:22;20.90;;;13.38;;
54845;SDS011;53889;50.084;8.646;2024-03-02T09:08:49;16.90;;;11.32;;
54845;SDS011;53889;50.084;8.646;2024-03-02T09:11:17;15.82;;;10.93;;
54845;SDS011;53889;50.084;8.646;2024-03-02T09:13:44;16.90;;;11.65;;
54845;SDS011;53889;50.084;8.646;2024-03-02T09:16:12;15.52;;;11.02;;
54845;SDS011;53889;50.084;8.646;2024-03-02T09:18:38;17.30;;;11.00;;
54845;SDS011;53889;50.084;8.646;2024-03-02T09:21:05;17.25;;;10.77;;
54845;SDS011;53889;50.084;8.646;2024-03-02T09:23:32;16.52;;;11.15;;
54845;SDS011;53889;50.084;8.646;2024-03-02T09:25:59;14.73;;;10.18;;
54845;SDS011;53889;50.084;8.646;2024-03-02T09:28:26;14.05;;;9.73;;
54845;SDS011;53889;50.084;8.646;2024-03-02T09:30:53;15.10;;;10.20;;
54845;SDS011;53889;50.084;8.646;2024-03-02T09:33:21;16.48;;;10.60;;
54845;SDS011;53889;50.084;8.646;2024-03-02T09:35:48;15.43;;;10.50;;
54845;SDS011;53889;50.084;8.646;2024-03-02T09:38:14;13.15;;;9.45;;
54845;SDS011;53889;50.084;8.646;2024-03-02T09:40:41;14.32;;;10.38;;
54845;SDS011;53889;50.084;8.646;2024-03-02T09:43:08;15.77;;;9.95;;
54845;SDS011;53889;50.084;8.646;2024-03-02T09:45:35;13.20;;;10.00;;
54845;SDS011;53889;50.084;8.646;2024-03-02T09:48:02;13.98;;;9.57;;
54845;SDS011;53889;50.084;8.646;2024-03-02T09:50:31;13.30;;;9.10;;
54845;SDS011;53889;50.084;8.646;2024-03-02T09:52:58;12.63;;;9.32;;
54845;SDS011;53889;50.084;8.646;2024-03-02T09:55:25;12.50;;;8.77;;
54845;SDS011;53889;50.084;8.646;2024-03-02T09:57:52;13.50;;;9.15;;
54845;SDS011;53889;50.084;8.646;2024-03-02T10:00:18;12.35;;;9.32;;
54845;SDS011;53889;50.084;8.646;2024-03-02T10:02:44;12.07;;;8.90;;
54845;SDS011;53889;50.084;8.646;2024-03-02T10:05:22;12.77;;;9.35;;
54845;SDS011;53889;50.084;8.646;2024-03-02T10:07:54;12.30;;;8.98;;
54845;SDS011;53889;50.084;8.646;2024-03-02T10:10:26;11.93;;;8.45;;
54845;SDS011;53889;50.084;8.646;2024-03-02T10:15:30;11.50;;;8.10;;
54845;SDS011;53889;50.084;8.646;2024-03-02T10:17:57;12.13;;;8.50;;
54845;SDS011;53889;50.084;8.646;2024-03-02T10:20:24;11.38;;;8.40;;
54845;SDS011;53889;50.084;8.646;2024-03-02T10:22:55;10.82;;;8.23;;
54845;SDS011;53889;50.084;8.646;2024-03-02T10:25:29;14.32;;;8.30;;
54845;SDS011;53889;50.084;8.646;2024-03-02T10:27:58;11.45;;;8.00;;
54845;SDS011;53889;50.084;8.646;2024-03-02T10:30:25;10.07;;;7.53;;
54845;SDS011;53889;50.084;8.646;2024-03-02T10:32:52;11.38;;;7.90;;
54845;SDS011;53889;50.084;8.646;2024-03-02T10:35:20;10.35;;;7.82;;
54845;SDS011;53889;50.084;8.646;2024-03-02T10:37:48;9.95;;;7.95;;
54845;SDS011;53889;50.084;8.646;2024-03-02T10:40:17;10.07;;;7.57;;
54845;SDS011;53889;50.084;8.646;2024-03-02T10:42:46;11.80;;;8.18;;
54845;SDS011;53889;50.084;8.646;2024-03-02T10:45:14;27.77;;;19.05;;
54845;SDS011;53889;50.084;8.646;2024-03-02T10:47:42;9.63;;;7.00;;
54845;SDS011;53889;50.084;8.646;2024-03-02T10:50:09;11.13;;;8.73;;
54845;SDS011;53889;50.084;8.646;2024-03-02T10:52:36;9.82;;;7.10;;
54845;SDS011;53889;50.084;8.646;2024-03-02T10:55:04;9.82;;;7.13;;
54845;SDS011;53889;50.084;8.646;2024-03-02T10:57:38;10.68;;;7.00;;
54845;SDS011;53889;50.084;8.646;2024-03-02T11:00:11;8.70;;;6.07;;
54845;SDS011;53889;50.084;8.646;2024-03-02T11:02:42;9.98;;;6.35;;
54845;SDS011;53889;50.084;8.646;2024-03-02T11:05:14;7.50;;;5.78;;
54845;SDS011;53889;50.084;8.646;2024-03-02T11:07:52;7.90;;;5.95;;
54845;SDS011;53889;50.084;8.646;2024-03-02T11:10:22;7.68;;;5.97;;
54845;SDS011;53889;50.084;8.646;2024-03-02T11:12:53;11.13;;;6.32;;
54845;SDS011;53889;50.084;8.646;2024-03-02T11:15:27;8.40;;;6.32;;
54845;SDS011;53889;50.084;8.646;2024-03-02T11:17:54;8.00;;;6.13;;
54845;SDS011;53889;50.084;8.646;2024-03-02T11:20:22;8.50;;;6.05;;
54845;SDS011;53889;50.084;8.646;2024-03-02T11:22:49;8.55;;;6.22;;
54845;SDS011;53889;50.084;8.646;2024-03-02T11:25:23;8.18;;;5.85;;
54845;SDS011;53889;50.084;8.646;2024-03-02T11:28:01;8.70;;;6.30;;
54845;SDS011;53889;50.084;8.646;2024-03-02T11:33:15;8.00;;;6.10;;
54845;SDS011;53889;50.084;8.646;2024-03-02T11:35:50;7.88;;;5.63;;
54845;SDS011;53889;50.084;8.646;2024-03-02T11:38:17;7.47;;;5.72;;
54845;SDS011;53889;50.084;8.646;2024-03-02T11:40:44;7.75;;;5.90;;
54845;SDS011;53889;50.084;8.646;2024-03-02T11:43:12;8.80;;;5.65;;
54845;SDS011;53889;50.084;8.646;2024-03-02T11:45:41;9.27;;;6.00;;
54845;SDS011;53889;50.084;8.646;2024-03-02T11:48:10;8.40;;;6.13;;
54845;SDS011;53889;50.084;8.646;2024-03-02T11:50:40;8.00;;;6.53;;
54845;SDS011;53889;50.084;8.646;2024-03-02T11:53:08;8.10;;;5.30;;
54845;SDS011;53889;50.084;8.646;2024-03-02T11:55:37;6.72;;;5.18;;
54845;SDS011;53889;50.084;8.646;2024-03-02T11:58:04;6.18;;;4.93;;
54845;SDS011;53889;50.084;8.646;2024-03-02T12:00:33;6.70;;;5.25;;
54845;SDS011;53889;50.084;8.646;2024-03-02T12:03:00;6.97;;;5.38;;
54845;SDS011;53889;50.084;8.646;2024-03-02T12:05:28;8.05;;;5.40;;
54845;SDS011;53889;50.084;8.646;2024-03-02T12:07:56;7.68;;;5.47;;
54845;SDS011;53889;50.084;8.646;2024-03-02T12:10:23;7.68;;;5.53;;
54845;SDS011;53889;50.084;8.646;2024-03-02T12:12:57;6.47;;;4.82;;
54845;SDS011;53889;50.084;8.646;2024-03-02T12:15:25;6.28;;;4.80;;
54845;SDS011;53889;50.084;8.646;2024-03-02T12:17:54;6.72;;;4.88;;
54845;SDS011;53889;50.084;8.646;2024-03-02T12:20:22;6.82;;;5.00;;
54845;SDS011;53889;50.084;8.646;2024-03-02T12:22:50;6.10;;;4.57;;
54845;SDS011;53889;50.084;8.646;2024-03-02T12:25:18;5.85;;;4.35;;
54845;SDS011;53889;50.084;8.646;2024-03-02T12:27:45;7.53;;;4.70;;
54845;SDS011;53889;50.084;8.646;2024-03-02T12:30:13;6.28;;;4.10;;
54845;SDS011;53889;50.084;8.646;2024-03-02T12:32:40;7.60;;;4.82;;
54845;SDS011;53889;50.084;8.646;2024-03-02T12:35:09;4.80;;;3.33;;
54845;SDS011;53889;50.084;8.646;2024-03-02T12:37:43;4.32;;;2.90;;
54845;SDS011;53889;50.084;8.646;2024-03-02T12:40:10;4.65;;;3.00;;
54845;SDS011;53889;50.084;8.646;2024-03-02T12:42:37;5.00;;;3.50;;
54845;SDS011;53889;50.084;8.646;2024-03-02T12:45:04;5.15;;;3.20;;
54845;SDS011;53889;50.084;8.646;2024-03-02T12:47:32;4.72;;;3.47;;
54845;SDS011;53889;50.084;8.646;2024-03-02T12:49:59;7.82;;;5.18;;
54845;SDS011;53889;50.084;8.646;2024-03-02T12:52:28;5.13;;;3.60;;
54845;SDS011;53889;50.084;8.646;2024-03-02T12:54:55;4.82;;;3.58;;
54845;SDS011;53889;50.084;8.646;2024-03-02T12:57:25;7.00;;;4.07;;
54845;SDS011;53889;50.084;8.646;2024-03-02T12:59:56;5.60;;;3.50;;
54845;SDS011;53889;50.084;8.646;2024-03-02T13:02:27;5.32;;;3.70;;
54845;SDS011;53889;50.084;8.646;2024-03-02T13:04:54;5.03;;;3.40;;
54845;SDS011;53889;50.084;8.646;2024-03-02T13:07:21;8.27;;;6.20;;
54845;SDS011;53889;50.084;8.646;2024-03-02T13:09:51;4.45;;;3.42;;
54845;SDS011;53889;50.084;8.646;2024-03-02T13:12:20;4.38;;;3.28;;
54845;SDS011;53889;50.084;8.646;2024-03-02T13:14:48;5.68;;;3.50;;
54845;SDS011;53889;50.084;8.646;2024-03-02T13:17:16;5.95;;;3.22;;
54845;SDS011;53889;50.084;8.646;2024-03-02T13:19:50;5.20;;;3.13;;
54845;SDS011;53889;50.084;8.646;2024-03-02T13:22:18;4.82;;;2.88;;
54845;SDS011;53889;50.084;8.646;2024-03-02T13:24:45;4.53;;;2.67;;
54845;SDS011;53889;50.084;8.646;2024-03-02T13:27:13;4.55;;;2.95;;
54845;SDS011;53889;50.084;8.646;2024-03-02T13:29:41;4.63;;;2.80;;
54845;SDS011;53889;50.084;8.646;2024-03-02T13:32:08;3.90;;;2.80;;
54845;SDS011;53889;50.084;8.646;2024-03-02T13:34:34;7.15;;;5.70;;
54845;SDS011;53889;50.084;8.646;2024-03-02T13:37:02;4.53;;;2.97;;
54845;SDS011;53889;50.084;8.646;2024-03-02T13:39:30;4.47;;;3.00;;
54845;SDS011;53889;50.084;8.646;2024-03-02T13:41:57;12.32;;;7.43;;
54845;SDS011;53889;50.084;8.646;2024-03-02T13:44:30;5.05;;;2.95;;
54845;SDS011;53889;50.084;8.646;2024-03-02T13:46:58;9.50;;;8.25;;
54845;SDS011;53889;50.084;8.646;2024-03-02T13:49:25;5.55;;;2.70;;
54845;SDS011;53889;50.084;8.646;2024-03-02T13:51:58;5.97;;;2.75;;
54845;SDS011;53889;50.084;8.646;2024-03-02T13:54:28;4.30;;;2.83;;
54845;SDS011;53889;50.084;8.646;2024-03-02T13:56:55;4.50;;;2.47;;
54845;SDS011;53889;50.084;8.646;2024-03-02T13:59:23;4.97;;;2.42;;
54845;SDS011;53889;50.084;8.646;2024-03-02T14:01:51;3.92;;;2.42;;
54845;SDS011;53889;50.084;8.646;2024-03-02T14:04:17;5.40;;;2.80;;
54845;SDS011;53889;50.084;8.646;2024-03-02T14:06:44;5.20;;;2.80;;
54845;SDS011;53889;50.084;8.646;2024-03-02T14:09:11;4.63;;;2.92;;
54845;SDS011;53889;50.084;8.646;2024-03-02T14:11:38;4.60;;;2.67;;
54845;SDS011;53889;50.084;8.646;2024-03-02T14:14:04;4.70;;;2.85;;
54845;SDS011;53889;50.084;8.646;2024-03-02T14:16:31;5.63;;;2.90;;
54845;SDS011;53889;50.084;8.646;2024-03-02T14:21:34;3.80;;;2.50;;
54845;SDS011;53889;50.084;8.646;2024-03-02T14:24:01;4.53;;;2.70;;
54845;SDS011;53889;50.084;8.646;2024-03-02T14:26:27;4.13;;;2.58;;
54845;SDS011;53889;50.084;8.646;2024-03-02T14:28:55;6.00;;;2.70;;
54845;SDS011;53889;50.084;8.646;2024-03-02T14:31:21;4.78;;;2.60;;
54845;SDS011;53889;50.084;8.646;2024-03-02T14:33:48;3.63;;;2.50;;
54845;SDS011;53889;50.084;8.646;2024-03-02T14:36:15;3.80;;;1.98;;
54845;SDS011;53889;50.084;8.646;2024-03-02T14:38:43;4.05;;;2.10;;
54845;SDS011;53889;50.084;8.646;2024-03-02T14:41:10;3.03;;;1.80;;
54845;SDS011;53889;50.084;8.646;2024-03-02T14:43:38;2.97;;;1.98;;
54845;SDS011;53889;50.084;8.646;2024-03-02T14:46:05;4.25;;;2.28;;
54845;SDS011;53889;50.084;8.646;2024-03-02T14:48:33;3.05;;;1.95;;
54845;SDS011;53889;50.084;8.646;2024-03-02T14:51:00;2.60;;;1.60;;
54845;SDS011;53889;50.084;8.646;2024-03-02T14:53:27;3.42;;;2.30;;
54845;SDS011;53889;50.084;8.646;2024-03-02T14:55:55;3.88;;;2.10;;
54845;SDS011;53889;50.084;8.646;2024-03-02T14:58:23;3.08;;;1.77;;
54845;SDS011;53889;50.084;8.646;2024-03-02T15:00:51;4.03;;;2.00;;
54845;SDS011;53889;50.084;8.646;2024-03-02T15:03:17;4.05;;;1.77;;
54845;SDS011;53889;50.084;8.646;2024-03-02T15:05:45;3.28;;;1.70;;
54845;SDS011;53889;50.084;8.646;2024-03-02T15:08:12;3.80;;;1.90;;
54845;SDS011;53889;50.084;8.646;2024-03-02T15:10:39;3.05;;;2.08;;
54845;SDS011;53889;50.084;8.646;2024-03-02T15:13:07;3.10;;;1.90;;
54845;SDS011;53889;50.084;8.646;2024-03-02T15:15:33;2.67;;;1.70;;
54845;SDS011;53889;50.084;8.646;2024-03-02T15:18:00;3.72;;;1.63;;
54845;SDS011;53889;50.084;8.646;2024-03-02T15:20:27;3.15;;;1.60;;
54845;SDS011;53889;50.084;8.646;2024-03-02T15:22:54;2.45;;;1.40;;
54845;SDS011;53889;50.084;8.646;2024-03-02T15:25:21;3.17;;;1.48;;
54845;SDS011;53889;50.084;8.646;2024-03-02T15:27:47;2.60;;;1.30;;
54845;SDS011;53889;50.084;8.646;2024-03-02T15:30:16;2.42;;;1.42;;
54845;SDS011;53889;50.084;8.646;2024-03-02T15:32:42;4.05;;;1.60;;
54845;SDS011;53889;50.084;8.646;2024-03-02T15:35:09;3.42;;;1.58;;
54845;SDS011;53889;50.084;8.646;2024-03-02T15:37:36;2.45;;;1.52;;
54845;SDS011;53889;50.084;8.646;2024-03-02T15:40:03;1.70;;;1.20;;
54845;SDS011;53889;50.084;8.646;2024-03-02T15:42:32;2.30;;;1.50;;
54845;SDS011;53889;50.084;8.646;2024-03-02T15:44:59;2.28;;;1.30;;
54845;SDS011;53889;50.084;8.646;2024-03-02T15:47:27;5.05;;;1.60;;
54845;SDS011;53889;50.084;8.646;2024-03-02T15:49:54;1.98;;;1.35;;
54845;SDS011;53889;50.084;8.646;2024-03-02T15:52:21;4.07;;;1.60;;
54845;SDS011;53889;50.084;8.646;2024-03-02T15:54:47;4.82;;;1.90;;
54845;SDS011;53889;50.084;8.646;2024-03-02T15:57:15;3.47;;;1.60;;
54845;SDS011;53889;50.084;8.646;2024-03-02T15:59:42;4.05;;;1.70;;
54845;SDS011;53889;50.084;8.646;2024-03-02T16:02:09;2.83;;;1.52;;
54845;SDS011;53889;50.084;8.646;2024-03-02T16:04:37;2.92;;;1.70;;
54845;SDS011;53889;50.084;8.646;2024-03-02T16:07:04;3.25;;;1.60;;
54845;SDS011;53889;50.084;8.646;2024-03-02T16:09:30;3.00;;;1.73;;
54845;SDS011;53889;50.084;8.646;2024-03-02T16:11:57;2.70;;;1.60;;
54845;SDS011;53889;50.084;8.646;2024-03-02T16:14:24;3.47;;;1.80;;
54845;SDS011;53889;50.084;8.646;2024-03-02T16:16:51;2.95;;;1.60;;
54845;SDS011;53889;50.084;8.646;2024-03-02T16:19:18;2.92;;;1.65;;
54845;SDS011;53889;50.084;8.646;2024-03-02T16:21:46;2.38;;;1.52;;
54845;SDS011;53889;50.084;8.646;2024-03-02T16:24:12;2.60;;;1.60;;
54845;SDS011;53889;50.084;8.646;2024-03-02T16:26:39;3.42;;;1.80;;
54845;SDS011;53889;50.084;8.646;2024-03-02T16:29:06;3.63;;;1.83;;
54845;SDS011;53889;50.084;8.646;2024-03-02T16:31:33;3.90;;;1.65;;
54845;SDS011;53889;50.084;8.646;2024-03-02T16:34:00;3.55;;;1.60;;
54845;SDS011;53889;50.084;8.646;2024-03-02T16:36:26;3.50;;;1.90;;
54845;SDS011;53889;50.084;8.646;2024-03-02T16:38:59;2.88;;;1.75;;
54845;SDS011;53889;50.084;8.646;2024-03-02T16:41:25;3.53;;;1.80;;
54845;SDS011;53889;50.084;8.646;2024-03-02T16:43:54;3.42;;;1.70;;
54845;SDS011;53889;50.084;8.646;2024-03-02T16:46:22;3.08;;;1.80;;
54845;SDS011;53889;50.084;8.646;2024-03-02T16:48:49;2.63;;;1.50;;
54845;SDS011;53889;50.084;8.646;2024-03-02T16:51:15;3.75;;;1.70;;
54845;SDS011;53889;50.084;8.646;2024-03-02T16:53:42;4.45;;;1.80;;
54845;SDS011;53889;50.084;8.646;2024-03-02T16:56:13;5.05;;;2.38;;
54845;SDS011;53889;50.084;8.646;2024-03-02T16:58:41;3.30;;;1.95;;
54845;SDS011;53889;50.084;8.646;2024-03-02T17:01:14;5.65;;;2.42;;
54845;SDS011;53889;50.084;8.646;2024-03-02T17:03:41;3.90;;;2.15;;
54845;SDS011;53889;50.084;8.646;2024-03-02T17:06:08;3.65;;;2.20;;
54845;SDS011;53889;50.084;8.646;2024-03-02T17:08:35;5.30;;;2.83;;
54845;SDS011;53889;50.084;8.646;2024-03-02T17:11:04;4.35;;;2.45;;
54845;SDS011;53889;50.084;8.646;2024-03-02T17:13:35;3.70;;;2.40;;
54845;SDS011;53889;50.084;8.646;2024-03-02T17:16:05;4.88;;;2.20;;
54845;SDS011;53889;50.084;8.646;2024-03-02T17:18:46;4.30;;;2.40;;
54845;SDS011;53889;50.084;8.646;2024-03-02T17:21:24;4.55;;;2.72;;
54845;SDS011;53889;50.084;8.646;2024-03-02T17:23:52;6.35;;;3.33;;
54845;SDS011;53889;50.084;8.646;2024-03-02T17:26:27;5.03;;;2.70;;
54845;SDS011;53889;50.084;8.646;2024-03-02T17:28:57;3.97;;;2.38;;
54845;SDS011;53889;50.084;8.646;2024-03-02T17:31:25;4.80;;;2.60;;
54845;SDS011;53889;50.084;8.646;2024-03-02T17:34:05;5.45;;;2.88;;
54845;SDS011;53889;50.084;8.646;2024-03-02T17:36:32;4.82;;;2.63;;
54845;SDS011;53889;50.084;8.646;2024-03-02T17:38:59;5.75;;;3.00;;
54845;SDS011;53889;50.084;8.646;2024-03-02T17:41:28;4.20;;;2.75;;
54845;SDS011;53889;50.084;8.646;2024-03-02T17:43:56;5.10;;;3.00;;
54845;SDS011;53889;50.084;8.646;2024-03-02T17:46:23;6.35;;;3.15;;
54845;SDS011;53889;50.084;8.646;2024-03-02T17:48:50;5.57;;;3.60;;
54845;SDS011;53889;50.084;8.646;2024-03-02T17:51:17;5.85;;;3.67;;
54845;SDS011;53889;50.084;8.646;2024-03-02T17:53:44;6.90;;;4.07;;
54845;SDS011;53889;50.084;8.646;2024-03-02T17:56:14;8.60;;;4.35;;
54845;SDS011;53889;50.084;8.646;2024-03-02T17:58:41;6.38;;;4.10;;
54845;SDS011;53889;50.084;8.646;2024-03-02T18:01:09;6.70;;;4.30;;
54845;SDS011;53889;50.084;8.646;2024-03-02T18:03:36;8.35;;;4.82;;
54845;SDS011;53889;50.084;8.646;2024-03-02T18:06:04;7.07;;;4.47;;
54845;SDS011;53889;50.084;8.646;2024-03-02T18:08:31;7.53;;;4.60;;
54845;SDS011;53889;50.084;8.646;2024-03-02T18:10:58;6.97;;;4.60;;
54845;SDS011;53889;50.084;8.646;2024-03-02T18:13:26;8.23;;;4.50;;
54845;SDS011;53889;50.084;8.646;2024-03-02T18:15:54;7.25;;;4.10;;
54845;SDS011;53889;50.084;8.646;2024-03-02T18:18:22;6.95;;;4.30;;
54845;SDS011;53889;50.084;8.646;2024-03-02T18:20:49;8.75;;;5.25;;
54845;SDS011;53889;50.084;8.646;2024-03-02T18:23:17;7.80;;;4.35;;
54845;SDS011;53889;50.084;8.646;2024-03-02T18:25:45;8.27;;;4.75;;
54845;SDS011;53889;50.084;8.646;2024-03-02T18:28:17;6.93;;;3.85;;
54845;SDS011;53889;50.084;8.646;2024-03-02T18:30:48;6.45;;;4.05;;
54845;SDS011;53889;50.084;8.646;2024-03-02T18:33:21;6.80;;;3.95;;
54845;SDS011;53889;50.084;8.646;2024-03-02T18:35:52;7.05;;;4.00;;
54845;SDS011;53889;50.084;8.646;2024-03-02T18:38:25;6.18;;;4.13;;
54845;SDS011;53889;50.084;8.646;2024-03-02T18:40:56;6.63;;;3.92;;
54845;SDS011;53889;50.084;8.646;2024-03-02T18:43:37;6.18;;;3.80;;
54845;SDS011;53889;50.084;8.646;2024-03-02T18:46:12;8.13;;;3.92;;
54845;SDS011;53889;50.084;8.646;2024-03-02T18:48:44;9.10;;;4.00;;
54845;SDS011;53889;50.084;8.646;2024-03-02T18:51:14;6.82;;;3.70;;
54845;SDS011;53889;50.084;8.646;2024-03-02T18:53:41;6.90;;;3.58;;
54845;SDS011;53889;50.084;8.646;2024-03-02T18:56:09;5.88;;;3.78;;
54845;SDS011;53889;50.084;8.646;2024-03-02T18:58:35;9.23;;;3.70;;
54845;SDS011;53889;50.084;8.646;2024-03-02T19:01:02;6.18;;;3.40;;
54845;SDS011;53889;50.084;8.646;2024-03-02T19:03:29;5.40;;;3.40;;
54845;SDS011;53889;50.084;8.646;2024-03-02T19:05:57;7.13;;;3.58;;
54845;SDS011;53889;50.084;8.646;2024-03-02T19:08:26;7.18;;;4.30;;
54845;SDS011;53889;50.084;8.646;2024-03-02T19:10:53;6.65;;;3.60;;
54845;SDS011;53889;50.084;8.646;2024-03-02T19:13:20;5.28;;;3.20;;
54845;SDS011;53889;50.084;8.646;2024-03-02T19:16:01;5.13;;;3.42;;
54845;SDS011;53889;50.084;8.646;2024-03-02T19:18:28;6.72;;;4.10;;
54845;SDS011;53889;50.084;8.646;2024-03-02T19:20:55;6.80;;;3.72;;
54845;SDS011;53889;50.084;8.646;2024-03-02T19:23:25;6.53;;;3.35;;
54845;SDS011;53889;50.084;8.646;2024-03-02T19:25:55;5.55;;;3.78;;
54845;SDS011;53889;50.084;8.646;2024-03-02T19:28:24;5.75;;;3.83;;
54845;SDS011;53889;50.084;8.646;2024-03-02T19:30:54;6.30;;;4.30;;
54845;SDS011;53889;50.084;8.646;2024-03-02T19:33:22;7.22;;;4.40;;
54845;SDS011;53889;50.084;8.646;2024-03-02T19:35:55;7.32;;;4.50;;
54845;SDS011;53889;50.084;8.646;2024-03-02T19:38:28;6.53;;;4.43;;
54845;SDS011;53889;50.084;8.646;2024-03-02T19:40:56;6.53;;;4.40;;
54845;SDS011;53889;50.084;8.646;2024-03-02T19:43:34;7.38;;;4.80;;
54845;SDS011;53889;50.084;8.646;2024-03-02T19:46:10;8.60;;;5.32;;
54845;SDS011;53889;50.084;8.646;2024-03-02T19:48:41;7.65;;;5.13;;
54845;SDS011;53889;50.084;8.646;2024-03-02T19:51:20;8.98;;;5.18;;
54845;SDS011;53889;50.084;8.646;2024-03-02T19:53:48;8.20;;;5.45;;
54845;SDS011;53889;50.084;8.646;2024-03-02T19:56:16;8.00;;;4.95;;
54845;SDS011;53889;50.084;8.646;2024-03-02T19:58:47;8.00;;;5.55;;
54845;SDS011;53889;50.084;8.646;2024-03-02T20:01:16;8.20;;;5.80;;
54845;SDS011;53889;50.084;8.646;2024-03-02T20:03:44;8.98;;;5.72;;
54845;SDS011;53889;50.084;8.646;2024-03-02T20:06:14;8.50;;;5.65;;
54845;SDS011;53889;50.084;8.646;2024-03-02T20:08:43;8.75;;;5.93;;
54845;SDS011;53889;50.084;8.646;2024-03-02T20:11:10;11.45;;;6.22;;
54845;SDS011;53889;50.084;8.646;2024-03-02T20:13:51;10.07;;;6.65;;
54845;SDS011;53889;50.084;8.646;2024-03-02T20:16:20;9.75;;;6.53;;
54845;SDS011;53889;50.084;8.646;2024-03-02T20:18:49;11.63;;;6.72;;
54845;SDS011;53889;50.084;8.646;2024-03-02T20:21:16;9.98;;;6.53;;
54845;SDS011;53889;50.084;8.646;2024-03-02T20:23:44;11.38;;;7.75;;
54845;SDS011;53889;50.084;8.646;2024-03-02T20:26:11;10.82;;;7.53;;
54845;SDS011;53889;50.084;8.646;2024-03-02T20:28:37;14.00;;;8.32;;
54845;SDS011;53889;50.084;8.646;2024-03-02T20:31:04;13.35;;;7.45;;
54845;SDS011;53889;50.084;8.646;2024-03-02T20:33:31;11.48;;;7.72;;
54845;SDS011;53889;50.084;8.646;2024-03-02T20:35:59;11.60;;;7.90;;
54845;SDS011;53889;50.084;8.646;2024-03-02T20:38:28;12.32;;;8.02;;
54845;SDS011;53889;50.084;8.646;2024-03-02T20:40:56;10.43;;;7.57;;
54845;SDS011;53889;50.084;8.646;2024-03-02T20:43:22;12.00;;;7.80;;
54845;SDS011;53889;50.084;8.646;2024-03-02T20:45:50;12.15;;;8.20;;
54845;SDS011;53889;50.084;8.646;2024-03-02T20:48:17;14.05;;;7.97;;
54845;SDS011;53889;50.084;8.646;2024-03-02T20:50:44;10.88;;;8.13;;
54845;SDS011;53889;50.084;8.646;2024-03-02T20:53:11;13.05;;;8.32;;
54845;SDS011;53889;50.084;8.646;2024-03-02T20:55:38;15.35;;;8.82;;
54845;SDS011;53889;50.084;8.646;2024-03-02T20:58:06;12.60;;;8.20;;
54845;SDS011;53889;50.084;8.646;2024-03-02T21:00:33;12.75;;;8.27;;
54845;SDS011;53889;50.084;8.646;2024-03-02T21:03:00;11.77;;;8.40;;
54845;SDS011;53889;50.084;8.646;2024-03-02T21:05:28;14.18;;;8.82;;
54845;SDS011;53889;50.084;8.646;2024-03-02T21:07:56;11.85;;;8.10;;
54845;SDS011;53889;50.084;8.646;2024-03-02T21:10:23;12.40;;;7.65;;
54845;SDS011;53889;50.084;8.646;2024-03-02T21:12:51;13.35;;;7.97;;
54845;SDS011;53889;50.084;8.646;2024-03-02T21:15:19;14.55;;;8.43;;
54845;SDS011;53889;50.084;8.646;2024-03-02T21:17:46;14.15;;;8.57;;
54845;SDS011;53889;50.084;8.646;2024-03-02T21:20:17;15.80;;;9.23;;
54845;SDS011;53889;50.084;8.646;2024-03-02T21:22:50;15.65;;;8.75;;
54845;SDS011;53889;50.084;8.646;2024-03-02T21:25:17;14.50;;;9.25;;
54845;SDS011;53889;50.084;8.646;2024-03-02T21:27:45;13.90;;;9.38;;
54845;SDS011;53889;50.084;8.646;2024-03-02T21:30:13;13.70;;;9.45;;
54845;SDS011;53889;50.084;8.646;2024-03-02T21:32:43;15.05;;;9.73;;
54845;SDS011;53889;50.084;8.646;2024-03-02T21:35:10;14.88;;;9.40;;
54845;SDS011;53889;50.084;8.646;2024-03-02T21:37:36;14.50;;;9.27;;
54845;SDS011;53889;50.084;8.646;2024-03-02T21:40:04;13.18;;;8.82;;
54845;SDS011;53889;50.084;8.646;2024-03-02T21:42:32;17.70;;;9.60;;
54845;SDS011;53889;50.084;8.646;2024-03-02T21:44:59;14.23;;;8.80;;
54845;SDS011;53889;50.084;8.646;2024-03-02T21:47:26;19.15;;;11.95;;
54845;SDS011;53889;50.084;8.646;2024-03-02T21:49:54;17.42;;;11.30;;
54845;SDS011;53889;50.084;8.646;2024-03-02T21:52:21;15.07;;;9.25;;
54845;SDS011;53889;50.084;8.646;2024-03-02T21:54:47;17.02;;;8.82;;
54845;SDS011;53889;50.084;8.646;2024-03-02T21:57:14;15.57;;;9.77;;
54845;SDS011;53889;50.084;8.646;2024-03-02T21:59:44;16.50;;;9.57;;
54845;SDS011;53889;50.084;8.646;2024-03-02T22:02:11;14.80;;;9.30;;
54845;SDS011;53889;50.084;8.646;2024-03-02T22:04:38;16.15;;;10.02;;
54845;SDS011;53889;50.084;8.646;2024-03-02T22:07:06;15.98;;;10.15;;
54845;SDS011;53889;50.084;8.646;2024-03-02T22:09:33;15.40;;;9.13;;
54845;SDS011;53889;50.084;8.646;2024-03-02T22:12:00;16.98;;;9.80;;
54845;SDS011;53889;50.084;8.646;2024-03-02T22:14:27;14.95;;;10.13;;
54845;SDS011;53889;50.084;8.646;2024-03-02T22:16:53;17.05;;;9.98;;
54845;SDS011;53889;50.084;8.646;2024-03-02T22:19:20;15.05;;;9.75;;
54845;SDS011;53889;50.084;8.646;2024-03-02T22:21:47;16.60;;;10.40;;
54845;SDS011;53889;50.084;8.646;2024-03-02T22:24:15;14.40;;;9.25;;
54845;SDS011;53889;50.084;8.646;2024-03-02T22:26:42;16.63;;;9.80;;
54845;SDS011;53889;50.084;8.646;2024-03-02T22:29:09;15.73;;;9.88;;
54845;SDS011;53889;50.084;8.646;2024-03-02T22:31:36;16.25;;;10.13;;
54845;SDS011;53889;50.084;8.646;2024-03-02T22:34:02;16.70;;;10.77;;
54845;SDS011;53889;50.084;8.646;2024-03-02T22:36:31;19.08;;;10.70;;
54845;SDS011;53889;50.084;8.646;2024-03-02T22:38:58;17.63;;;10.75;;
54845;SDS011;53889;50.084;8.646;2024-03-02T22:41:26;17.88;;;10.38;;
54845;SDS011;53889;50.084;8.646;2024-03-02T22:43:52;16.08;;;10.10;;
54845;SDS011;53889;50.084;8.646;2024-03-02T22:46:20;17.10;;;10.73;;
54845;SDS011;53889;50.084;8.646;2024-03-02T22:48:46;16.50;;;10.10;;
54845;SDS011;53889;50.084;8.646;2024-03-02T22:51:19;17.88;;;9.65;;
54845;SDS011;53889;50.084;8.646;2024-03-02T22:53:47;16.80;;;9.98;;
54845;SDS011;53889;50.084;8.646;2024-03-02T22:56:13;15.95;;;10.18;;
54845;SDS011;53889;50.084;8.646;2024-03-02T22:58:42;18.00;;;10.55;;
54845;SDS011;53889;50.084;8.646;2024-03-02T23:01:09;17.20;;;10.75;;
54845;SDS011;53889;50.084;8.646;2024-03-02T23:03:37;18.45;;;11.52;;